Flight Track Log - Related Links

Times and Time Zones

All times are in EST time to prevent confusion due to time zone crossing. See the AFL150 flight status page for this flight to view local times or setup timezone preferences in your user account.

Time Position Orientation Groundspeed Altitude Reporting Facility
EST Latitude Longitude Course Direction KTS MPH feet Rate Location/Type
Tue 04:43:00 AM 56.1077 37.1070 317° Northwest  Level FlightAware Approximate
Tue 04:44:00 AM 56.1925 36.9645 317° Northwest  Level FlightAware Approximate
Tue 04:45:00 AM 56.2772 36.8213 317° Northwest  Level FlightAware Approximate
Tue 04:46:00 AM 56.3617 36.6776 317° Northwest  Level FlightAware Approximate
Tue 04:47:00 AM 56.4460 36.5331 317° Northwest  Level FlightAware Approximate
Tue 04:48:00 AM 56.5302 36.3881 316° Northwest  Level FlightAware Approximate
Tue 04:49:00 AM 56.6142 36.2424 316° Northwest  Level FlightAware Approximate
Tue 04:50:00 AM 56.6981 36.0960 316° Northwest  Level FlightAware Approximate
Tue 04:51:00 AM 56.7817 35.9490 316° Northwest  Level FlightAware Approximate
Tue 04:52:00 AM 56.8652 35.8013 316° Northwest  Level FlightAware Approximate
Tue 04:53:00 AM 56.9485 35.6529 316° Northwest  Level FlightAware Approximate
Tue 04:54:00 AM 57.0317 35.5038 316° Northwest  Level FlightAware Approximate
Tue 04:55:00 AM 57.1147 35.3540 316° Northwest  Level FlightAware Approximate
Tue 04:56:00 AM 57.1976 35.2036 315° West  Level FlightAware Approximate
Tue 04:57:00 AM 57.2802 35.0525 315° West  Level FlightAware Approximate
Tue 04:58:00 AM 57.3627 34.9007 315° West  Level FlightAware Approximate
Tue 04:59:00 AM 57.4450 34.7482 315° West  Level FlightAware Approximate
Tue 05:00:00 AM 57.5108 34.5700 312° West  Level Estimated
Tue 05:01:00 AM 57.5887 34.4092 312° West  Level FlightAware Approximate
Tue 05:02:00 AM 57.6664 34.2476 312° West  Level FlightAware Approximate
Tue 05:03:00 AM 57.7439 34.0854 312° West  Level FlightAware Approximate
Tue 05:04:00 AM 57.8211 33.9225 312° West  Level FlightAware Approximate
Tue 05:05:00 AM 57.8982 33.7588 312° West  Level FlightAware Approximate
Tue 05:06:00 AM 57.9751 33.5945 311° West  Level FlightAware Approximate
Tue 05:07:00 AM 58.0517 33.4295 311° West  Level FlightAware Approximate
Tue 05:08:00 AM 58.1281 33.2637 311° West  Level FlightAware Approximate
Tue 05:09:00 AM 58.2043 33.0973 311° West  Level FlightAware Approximate
Tue 05:10:00 AM 58.2803 32.9301 311° West  Level FlightAware Approximate
Tue 05:11:00 AM 58.3561 32.7622 311° West  Level FlightAware Approximate
Tue 05:12:00 AM 58.4316 32.5936 311° West  Level FlightAware Approximate
Tue 05:13:00 AM 58.5070 32.4243 310° West  Level FlightAware Approximate
Tue 05:14:00 AM 58.5821 32.2542 310° West  Level FlightAware Approximate
Tue 05:15:00 AM 58.6570 32.0834 310° West  Level FlightAware Approximate
Tue 05:16:00 AM 58.7316 31.9119 310° West  Level FlightAware Approximate
Tue 05:17:00 AM 58.8061 31.7397 310° West  Level FlightAware Approximate
Tue 05:18:00 AM 58.8803 31.5667 310° West  Level FlightAware Approximate
Tue 05:19:00 AM 58.9542 31.3929 310° West  Level FlightAware Approximate
Tue 05:20:00 AM 59.0280 31.2184 309° West  Level FlightAware Approximate
Tue 05:21:00 AM 59.1014 31.0432 309° West  Level FlightAware Approximate
Tue 05:22:00 AM 59.1747 30.8672 309° West  Level FlightAware Approximate
Tue 05:23:00 AM 59.2477 30.6905 309° West  Level FlightAware Approximate
Tue 05:24:00 AM 59.3205 30.5130 309° West  Level FlightAware Approximate
Tue 05:25:00 AM 59.3930 30.3347 309° West  Level FlightAware Approximate
Tue 05:26:00 AM 59.4653 30.1557 309° West  Level FlightAware Approximate
Tue 05:27:00 AM 59.5374 29.9759 308° West  Level FlightAware Approximate
Tue 05:28:00 AM 59.6092 29.7953 308° West  Level FlightAware Approximate
Tue 05:29:00 AM 59.6807 29.6140 308° West  Level FlightAware Approximate
Tue 05:30:00 AM 59.7520 29.4319 308° West  Level FlightAware Approximate
Tue 05:31:00 AM 59.8231 29.2490 308° West  Level FlightAware Approximate
Tue 05:32:00 AM 59.8939 29.0653 308° West  Level FlightAware Approximate
Tue 05:33:00 AM 59.9644 28.8809 307° West  Level FlightAware Approximate
Tue 05:34:00 AM 60.0347 28.6957 307° West  Level FlightAware Approximate
Tue 05:35:00 AM 60.1047 28.5096 307° West  Level FlightAware Approximate
Tue 05:36:00 AM 60.1744 28.3228 307° West  Level FlightAware Approximate
Tue 05:37:00 AM 60.2439 28.1352 307° West  Level FlightAware Approximate
Tue 05:38:00 AM 60.3131 27.9468 307° West  Level FlightAware Approximate
Tue 05:39:00 AM 60.3821 27.7576 306° West  Level FlightAware Approximate
Tue 05:40:00 AM 60.4508 27.5676 306° West  Level FlightAware Approximate
Tue 05:41:00 AM 60.5192 27.3768 306° West  Level FlightAware Approximate
Tue 05:42:00 AM 60.5873 27.1852 306° West  Level FlightAware Approximate
Tue 05:43:00 AM 60.6552 26.9928 306° West  Level FlightAware Approximate
Tue 05:44:00 AM 60.7228 26.7996 306° West  Level FlightAware Approximate
Tue 05:45:00 AM 60.7901 26.6055 305° West  Level FlightAware Approximate
Tue 05:46:00 AM 60.8571 26.4107 305° West  Level FlightAware Approximate
Tue 05:47:00 AM 60.9239 26.2150 305° West  Level FlightAware Approximate
Tue 05:48:00 AM 60.9903 26.0185 305° West  Level FlightAware Approximate
Tue 05:49:00 AM 61.0565 25.8212 305° West  Level FlightAware Approximate
Tue 05:50:00 AM 61.1224 25.6230 305° West  Level FlightAware Approximate
Tue 05:51:00 AM 61.1880 25.4240 304° West  Level FlightAware Approximate
Tue 05:52:00 AM 61.2533 25.2243 304° West  Level FlightAware Approximate
Tue 05:53:00 AM 61.3183 25.0236 304° West  Level FlightAware Approximate
Tue 05:54:00 AM 61.3830 24.8222 304° West  Level FlightAware Approximate
Tue 05:55:00 AM 61.4336 24.6034 303° West  Level Estimated
Tue 05:56:00 AM 61.4974 24.4001 303° West  Level FlightAware Approximate
Tue 05:57:00 AM 61.5610 24.1959 303° West  Level FlightAware Approximate
Tue 05:58:00 AM 61.6243 23.9909 303° West  Level FlightAware Approximate
Tue 05:59:00 AM 61.6872 23.7850 303° West  Level FlightAware Approximate
Tue 06:00:00 AM 61.7499 23.5783 303° West  Level FlightAware Approximate
Tue 06:01:00 AM 61.8122 23.3708 303° West  Level FlightAware Approximate
Tue 06:02:00 AM 61.8743 23.1624 302° West  Level FlightAware Approximate
Tue 06:02:34 AM 58.8328 21.5198 302° West 442 509 34,000  Level FlightAware ADS-B
Tue 06:03:13 AM 58.8524 21.3647 284° West 444 511 34,000  Level FlightAware ADS-B
Tue 06:03:52 AM 58.8710 21.2168 284° West 443 510 34,000  Level FlightAware ADS-B
Tue 06:04:23 AM 58.8802 21.1432 284° West 443 510 34,000  Level FlightAware ADS-B
Tue 06:04:54 AM 58.9014 20.9805 284° West 445 512 34,000  Level FlightAware ADS-B
Tue 06:05:32 AM 58.9230 20.8559 289° West 446 513 34,000  Level FlightAware ADS-B
Tue 06:06:12 AM 58.9520 20.6851 288° West 446 513 34,000  Level FlightAware ADS-B
Tue 06:06:53 AM 58.9778 20.5283 288° West 445 512 34,000  Level FlightAware ADS-B
Tue 06:07:33 AM 59.0027 20.3759 288° West 443 510 34,000  Level FlightAware ADS-B
Tue 06:08:14 AM 59.0267 20.2266 287° West 443 510 34,000  Level FlightAware ADS-B
Tue 06:08:54 AM 59.0509 20.0752 287° West 444 511 34,000  Level FlightAware ADS-B
Tue 06:09:33 AM 59.0755 19.9204 287° West 445 512 34,000  Level FlightAware ADS-B
Tue 06:10:14 AM 59.0994 19.7681 287° West 445 512 34,000  Level FlightAware ADS-B
Tue 06:10:54 AM 59.1233 19.6151 287° West 445 512 34,000  Level FlightAware ADS-B
Tue 06:11:32 AM 59.1464 19.4655 287° West 446 513 34,000  Level FlightAware ADS-B
Tue 06:12:14 AM 59.1698 19.3127 287° West 445 512 34,000  Level FlightAware ADS-B
Tue 06:12:53 AM 59.1927 19.1616 287° West 443 510 34,000  Level FlightAware ADS-B
Tue 06:13:34 AM 59.2163 19.0047 286° West 441 507 34,000  Level FlightAware ADS-B
Tue 06:14:14 AM 59.2393 18.8497 286° West 440 506 34,000  Level FlightAware ADS-B
Tue 06:14:53 AM 59.2612 18.7013 286° West 439 505 34,000  Level FlightAware ADS-B
Tue 06:15:34 AM 59.2837 18.5473 286° West 438 504 34,000  Level FlightAware ADS-B
Tue 06:16:13 AM 59.3054 18.3976 286° West 437 503 34,000  Level FlightAware ADS-B
Tue 06:16:53 AM 59.3262 18.2530 286° West 433 498 34,000  Level FlightAware ADS-B
Tue 06:17:33 AM 59.3455 18.1176 286° West 431 496 34,000  Level FlightAware ADS-B
Tue 06:18:13 AM 59.3692 17.9492 286° West 428 493 34,000  Level FlightAware ADS-B
Tue 06:18:54 AM 59.3901 17.7991 285° West 426 490 34,000  Level FlightAware ADS-B
Tue 06:19:33 AM 59.4110 17.6479 285° West 425 489 34,000  Level FlightAware ADS-B
Tue 06:20:13 AM 59.4288 17.5171 285° West 426 490 34,000  Level FlightAware ADS-B
Tue 06:20:50 AM 59.4493 17.3661 285° West 426 490 34,000  Level FlightAware ADS-B
Tue 06:21:32 AM 59.4708 17.2062 285° West 429 494 34,000  Level FlightAware ADS-B
Tue 06:22:14 AM 59.4917 17.0491 285° West 429 494 34,000  Level FlightAware ADS-B
Tue 06:22:54 AM 59.5112 16.9013 285° West 428 493 34,000  Level FlightAware ADS-B
Tue 06:23:33 AM 59.5307 16.7514 284° West 429 494 34,000  Level FlightAware ADS-B
Tue 06:24:14 AM 59.5486 16.6127 284° West 431 496 34,000  Level FlightAware ADS-B
Tue 06:24:54 AM 59.5700 16.4457 284° West 435 501 34,000  Level FlightAware ADS-B
Tue 06:25:33 AM 59.5893 16.2924 284° West 436 502 34,000  Level FlightAware ADS-B
Tue 06:26:12 AM 59.6071 16.1515 284° West 434 499 34,000  Level FlightAware ADS-B
Tue 06:26:53 AM 59.6278 15.9842 284° West 431 496 34,000  Level FlightAware ADS-B
Tue 06:27:33 AM 59.6464 15.8323 284° West 430 495 34,000  Level FlightAware ADS-B
Tue 06:28:13 AM 59.6646 15.6823 284° West 428 493 34,000  Level FlightAware ADS-B
Tue 06:28:50 AM 59.6800 15.5533 283° West 425 489 34,000 56 Level FlightAware ADS-B
Tue 07:03:47 AM 60.6678 7.4554 282° West 435 501 36,000 56 Climbing FlightAware ADS-B
Tue 07:04:25 AM 60.6835 7.3017 282° West 437 503 36,000  Level FlightAware ADS-B
Tue 07:05:06 AM 60.7003 7.1354 282° West 435 501 36,000  Level FlightAware ADS-B
Tue 07:05:45 AM 60.7158 6.9793 282° West 436 502 36,000  Level FlightAware ADS-B
Tue 07:06:26 AM 60.7316 6.8175 281° West 437 503 36,000  Level FlightAware ADS-B
Tue 07:07:07 AM 60.7475 6.6529 281° West 432 497 36,000  Level FlightAware ADS-B
Tue 07:07:47 AM 60.7629 6.4929 281° West 433 498 36,000  Level FlightAware ADS-B
Tue 07:08:26 AM 60.7778 6.3347 281° West 428 493 36,000  Level FlightAware ADS-B
Tue 07:09:06 AM 60.7924 6.1781 281° West 428 493 36,000  Level FlightAware ADS-B
Tue 07:09:43 AM 60.8059 6.0321 281° West 426 490 36,000  Level FlightAware ADS-B
Tue 07:10:25 AM 60.8212 5.8629 281° West 425 489 36,000  Level FlightAware ADS-B
Tue 07:11:06 AM 60.8354 5.7020 280° West 424 488 36,000  Level FlightAware ADS-B
Tue 07:13:00 AM 60.8734 5.2552 280° West  Level Estimated
Tue 07:14:00 AM 60.8928 5.0196 280° West  Level Estimated
Tue 07:15:00 AM 60.9118 4.7838 280° West  Level Estimated
Tue 07:16:00 AM 60.9304 4.5476 279° West  Level Estimated
Tue 07:17:00 AM 60.9485 4.3112 279° West  Level Estimated
Tue 07:18:00 AM 60.9663 4.0745 279° West  Level Estimated
Tue 07:19:00 AM 60.9836 3.8376 279° West  Level Estimated
Tue 07:20:00 AM 61.0005 3.6004 278° West  Level Estimated
Tue 07:21:00 AM 61.0170 3.3629 278° West  Level Estimated
Tue 07:22:00 AM 61.0331 3.1253 278° West  Level Estimated
Tue 07:23:00 AM 61.0487 2.8873 278° West  Level Estimated
Tue 07:24:00 AM 61.0640 2.6492 278° West  Level Estimated
Tue 07:25:00 AM 61.0788 2.4108 277° West  Level Estimated
Tue 07:26:00 AM 61.0932 2.1722 277° West  Level Estimated
Tue 07:27:00 AM 61.1072 1.9333 277° West  Level Estimated
Tue 07:28:00 AM 61.1207 1.6943 277° West  Level Estimated
Tue 07:29:00 AM 61.1339 1.4551 277° West  Level Estimated
Tue 07:30:00 AM 61.1466 1.2156 276° West  Level Estimated
Tue 07:31:00 AM 61.1589 0.9760 276° West  Level Estimated
Tue 07:32:00 AM 61.1707 0.7362 276° West  Level Estimated
Tue 07:33:00 AM 61.1822 0.4963 276° West  Level Estimated
Tue 07:34:00 AM 61.1932 0.2561 276° West  Level Estimated
Tue 07:35:00 AM 61.2038 0.0158 275° West  Level Estimated
Tue 07:36:00 AM 61.2139 -0.2247 275° West  Level Estimated
Tue 07:37:00 AM 61.2237 -0.4653 275° West  Level Estimated
Tue 07:38:00 AM 61.2330 -0.7061 275° West  Level Estimated
Tue 07:39:00 AM 61.2419 -0.9470 274° West  Level Estimated
Tue 07:40:00 AM 61.2503 -1.1880 274° West  Level Estimated
Tue 07:41:00 AM 61.2584 -1.4292 274° West  Level Estimated
Tue 07:42:00 AM 61.2659 -1.6705 274° West  Level Estimated
Tue 07:43:00 AM 61.2731 -1.9119 274° West  Level Estimated
Tue 07:44:00 AM 61.2799 -2.1534 273° West  Level Estimated
Tue 07:45:00 AM 61.2862 -2.3950 273° West  Level Estimated
Tue 07:46:00 AM 61.2921 -2.6367 273° West  Level Estimated
Tue 07:47:00 AM 61.2975 -2.8785 273° West  Level Estimated
Tue 07:48:00 AM 61.3026 -3.1204 273° West  Level Estimated
Tue 07:49:00 AM 61.3072 -3.3623 272° West  Level Estimated
Tue 07:50:00 AM 61.3113 -3.6043 272° West  Level Estimated
Tue 07:51:00 AM 61.3150 -3.8464 272° West  Level Estimated
Tue 07:52:00 AM 61.3183 -4.0885 272° West  Level Estimated
Tue 07:53:00 AM 61.3212 -4.3307 272° West  Level Estimated
Tue 07:54:00 AM 61.3237 -4.5729 271° West  Level Estimated
Tue 07:55:00 AM 61.3257 -4.8152 271° West  Level Estimated
Tue 07:56:00 AM 61.3272 -5.0574 271° West  Level Estimated
Tue 07:57:00 AM 61.3284 -5.2997 271° West  Level Estimated
Tue 07:58:00 AM 61.3291 -5.5421 270° West  Level Estimated
Tue 07:59:00 AM 61.3294 -5.7844 270° West  Level Estimated
Tue 08:00:00 AM 61.3292 -6.0267 270° West  Level Estimated
Tue 08:01:00 AM 61.3287 -6.2690 270° West  Level Estimated
Tue 08:02:00 AM 61.3276 -6.5113 270° West  Level Estimated
Tue 08:03:00 AM 61.3262 -6.7536 269° West  Level Estimated
Tue 08:04:00 AM 61.3243 -6.9959 269° West  Level Estimated
Tue 08:05:00 AM 61.3220 -7.2381 269° West  Level Estimated
Tue 08:06:00 AM 61.3193 -7.4803 269° West  Level Estimated
Tue 08:07:00 AM 61.3161 -7.7224 269° West  Level Estimated
Tue 08:08:00 AM 61.3125 -7.9645 268° West  Level Estimated
Tue 08:09:00 AM 61.3085 -8.2066 268° West  Level Estimated
Tue 08:10:00 AM 61.3041 -8.4485 268° West  Level Estimated
Tue 08:11:00 AM 61.2992 -8.6904 268° West  Level Estimated
Tue 08:12:00 AM 61.2938 -8.9323 267° West  Level Estimated
Tue 08:13:00 AM 61.2881 -9.1740 267° West  Level Estimated
Tue 08:14:00 AM 61.2819 -9.4156 267° West  Level Estimated
Tue 08:15:00 AM 61.2753 -9.6572 267° West  Level Estimated
Tue 08:16:00 AM 61.2683 -9.8986 267° West  Level Estimated
Tue 08:17:00 AM 61.2608 -10.1399 266° West  Level Estimated
Tue 08:18:00 AM 61.2529 -10.3811 266° West  Level Estimated
Tue 08:19:00 AM 61.2446 -10.6222 266° West  Level Estimated
Tue 08:20:00 AM 61.2358 -10.8632 266° West  Level Estimated
Tue 08:21:00 AM 61.2267 -11.1040 266° West  Level Estimated
Tue 08:22:00 AM 61.2171 -11.3446 265° West  Level Estimated
Tue 08:23:00 AM 61.2070 -11.5852 265° West  Level Estimated
Tue 08:24:00 AM 61.1966 -11.8255 265° West  Level Estimated
Tue 08:25:00 AM 61.1857 -12.0657 265° West  Level Estimated
Tue 08:26:00 AM 61.1744 -12.3057 265° West  Level Estimated
Tue 08:27:00 AM 61.1627 -12.5456 264° West  Level Estimated
Tue 08:28:00 AM 61.1505 -12.7853 264° West  Level Estimated
Tue 08:29:00 AM 61.1380 -13.0248 264° West  Level Estimated
Tue 08:30:00 AM 61.1250 -13.2641 264° West  Level Estimated
Tue 08:31:00 AM 61.1115 -13.5032 263° West  Level Estimated
Tue 08:32:00 AM 61.0977 -13.7421 263° West  Level Estimated
Tue 08:33:00 AM 61.0834 -13.9807 263° West  Level Estimated
Tue 08:34:00 AM 61.0687 -14.2192 263° West  Level Estimated
Tue 08:35:00 AM 61.0536 -14.4574 263° West  Level Estimated
Tue 08:36:00 AM 61.0381 -14.6954 262° West  Level Estimated
Tue 08:37:00 AM 61.0222 -14.9332 262° West  Level Estimated
Tue 08:38:00 AM 61.0058 -15.1707 262° West  Level Estimated
Tue 08:39:00 AM 60.9891 -15.4080 262° West  Level Estimated
Tue 08:40:00 AM 60.9719 -15.6450 262° West  Level Estimated
Tue 08:41:00 AM 60.9543 -15.8818 261° West  Level Estimated
Tue 08:42:00 AM 60.9362 -16.1183 261° West  Level Estimated
Tue 08:43:00 AM 60.9178 -16.3545 261° West  Level Estimated
Tue 08:44:00 AM 60.8989 -16.5905 261° West  Level Estimated
Tue 08:45:00 AM 60.8797 -16.8261 261° West  Level Estimated
Tue 08:46:00 AM 60.8600 -17.0615 260° West  Level Estimated
Tue 08:47:00 AM 60.8399 -17.2966 260° West  Level Estimated
Tue 08:48:00 AM 60.8194 -17.5314 260° West  Level Estimated
Tue 08:49:00 AM 60.7985 -17.7659 260° West  Level Estimated
Tue 08:50:00 AM 60.7772 -18.0001 260° West  Level Estimated
Tue 08:51:00 AM 60.7555 -18.2339 259° West  Level Estimated
Tue 08:52:00 AM 60.7334 -18.4675 259° West  Level Estimated
Tue 08:53:00 AM 60.7108 -18.7007 259° West  Level Estimated
Tue 08:54:00 AM 60.6879 -18.9336 259° West  Level Estimated
Tue 08:55:00 AM 60.6646 -19.1662 259° West  Level Estimated
Tue 08:56:00 AM 60.6408 -19.3984 258° West  Level Estimated
Tue 08:57:00 AM 60.6167 -19.6303 258° West  Level Estimated
Tue 08:58:00 AM 60.5921 -19.8618 258° West  Level Estimated
Tue 08:59:00 AM 60.5672 -20.0929 258° West  Level Estimated
Tue 09:00:00 AM 60.5419 -20.3237 258° West  Level Estimated
Tue 09:01:00 AM 60.5161 -20.5542 257° West  Level Estimated
Tue 09:02:00 AM 60.4900 -20.7843 257° West  Level Estimated
Tue 09:03:00 AM 60.4634 -21.0140 257° West  Level Estimated
Tue 09:04:00 AM 60.4365 -21.2433 257° West  Level Estimated
Tue 09:05:00 AM 60.4092 -21.4722 257° West  Level Estimated
Tue 09:06:00 AM 60.3815 -21.7008 256° West  Level Estimated
Tue 09:07:00 AM 60.3534 -21.9290 256° West  Level Estimated
Tue 09:08:00 AM 60.3249 -22.1567 256° West  Level Estimated
Tue 09:09:00 AM 60.2960 -22.3841 256° West  Level Estimated
Tue 09:10:00 AM 60.2667 -22.6111 256° West  Level Estimated
Tue 09:11:00 AM 60.2371 -22.8377 255° West  Level Estimated
Tue 09:12:00 AM 60.2070 -23.0638 255° West  Level Estimated
Tue 09:13:00 AM 60.1766 -23.2895 255° West  Level Estimated
Tue 09:14:00 AM 60.1458 -23.5148 255° West  Level Estimated
Tue 09:15:00 AM 60.1146 -23.7397 255° West  Level Estimated
Tue 09:16:00 AM 60.0830 -23.9642 254° West  Level Estimated
Tue 09:17:00 AM 60.0511 -24.1882 254° West  Level Estimated
Tue 09:18:00 AM 60.0188 -24.4118 254° West  Level Estimated
Tue 09:19:00 AM 59.9861 -24.6349 254° West  Level Estimated
Tue 09:20:00 AM 59.9530 -24.8576 254° West  Level Estimated
Tue 09:21:00 AM 59.9195 -25.0799 253° West  Level Estimated
Tue 09:22:00 AM 59.8857 -25.3017 253° West  Level Estimated
Tue 09:23:00 AM 59.8515 -25.5231 253° West  Level Estimated
Tue 09:24:00 AM 59.8169 -25.7440 253° West  Level Estimated
Tue 09:25:00 AM 59.7820 -25.9644 253° West  Level Estimated
Tue 09:26:00 AM 59.7467 -26.1844 252° West  Level Estimated
Tue 09:27:00 AM 59.7110 -26.4039 252° West  Level Estimated
Tue 09:28:00 AM 59.6750 -26.6229 252° West  Level Estimated
Tue 09:29:00 AM 59.6386 -26.8415 252° West  Level Estimated
Tue 09:30:00 AM 59.6018 -27.0596 252° West  Level Estimated
Tue 09:31:00 AM 59.5647 -27.2772 251° West  Level Estimated
Tue 09:32:00 AM 59.5272 -27.4943 251° West  Level Estimated
Tue 09:33:00 AM 59.4893 -27.7110 251° West  Level Estimated
Tue 09:34:00 AM 59.4511 -27.9271 251° West  Level Estimated
Tue 09:35:00 AM 59.4126 -28.1428 251° West  Level Estimated
Tue 09:36:00 AM 59.3736 -28.3580 251° West  Level Estimated
Tue 09:37:00 AM 59.3344 -28.5726 250° West  Level Estimated
Tue 09:38:00 AM 59.2948 -28.7868 250° West  Level Estimated
Tue 09:39:00 AM 59.2548 -29.0005 250° West  Level Estimated
Tue 09:40:00 AM 59.2145 -29.2137 250° West  Level Estimated
Tue 09:41:00 AM 59.1738 -29.4263 250° West  Level Estimated
Tue 09:42:00 AM 59.1328 -29.6385 249° West  Level Estimated
Tue 09:43:00 AM 59.0914 -29.8501 249° West  Level Estimated
Tue 09:44:00 AM 59.0497 -30.0613 249° West  Level Estimated
Tue 09:45:00 AM 59.0077 -30.2719 249° West  Level Estimated
Tue 09:46:00 AM 58.9653 -30.4820 249° West  Level Estimated
Tue 09:47:00 AM 58.9225 -30.6916 249° West  Level Estimated
Tue 09:48:00 AM 58.8795 -30.9007 248° West  Level Estimated
Tue 09:49:00 AM 58.8361 -31.1092 248° West  Level Estimated
Tue 09:50:00 AM 58.7923 -31.3173 248° West  Level Estimated
Tue 09:51:00 AM 58.7483 -31.5248 248° West  Level Estimated
Tue 09:52:00 AM 58.7039 -31.7317 248° West  Level Estimated
Tue 09:53:00 AM 58.6591 -31.9382 247° West  Level Estimated
Tue 09:54:00 AM 58.6141 -32.1441 247° West  Level Estimated
Tue 09:55:00 AM 58.5687 -32.3495 247° West  Level Estimated
Tue 09:56:00 AM 58.5229 -32.5543 247° West  Level Estimated
Tue 09:57:00 AM 58.4769 -32.7586 247° West  Level Estimated
Tue 09:58:00 AM 58.4305 -32.9624 247° West  Level Estimated
Tue 09:59:00 AM 58.3838 -33.1657 246° West  Level Estimated
Tue 10:00:00 AM 58.3368 -33.3684 246° West  Level Estimated
Tue 10:01:00 AM 58.2895 -33.5705 246° West  Level Estimated
Tue 10:02:00 AM 58.2418 -33.7721 246° West  Level Estimated
Tue 10:03:00 AM 58.1939 -33.9732 246° West  Level Estimated
Tue 10:04:00 AM 58.1456 -34.1738 246° West  Level Estimated
Tue 10:05:00 AM 58.0970 -34.3737 245° Southwest  Level Estimated
Tue 10:06:00 AM 58.0481 -34.5732 245° Southwest  Level Estimated
Tue 10:07:00 AM 57.9989 -34.7721 245° Southwest  Level Estimated
Tue 10:08:00 AM 57.9493 -34.9704 245° Southwest  Level Estimated
Tue 10:09:00 AM 57.8995 -35.1682 245° Southwest  Level Estimated
Tue 10:10:00 AM 57.8493 -35.3655 245° Southwest  Level Estimated
Tue 10:11:00 AM 57.7989 -35.5622 244° Southwest  Level Estimated
Tue 10:12:00 AM 57.7481 -35.7583 244° Southwest  Level Estimated
Tue 10:13:00 AM 57.6971 -35.9539 244° Southwest  Level Estimated
Tue 10:14:00 AM 57.6457 -36.1489 244° Southwest  Level Estimated
Tue 10:15:00 AM 57.5941 -36.3434 244° Southwest  Level Estimated
Tue 10:16:00 AM 57.5421 -36.5374 244° Southwest  Level Estimated
Tue 10:17:00 AM 57.4899 -36.7308 243° Southwest  Level Estimated
Tue 10:18:00 AM 57.4374 -36.9236 243° Southwest  Level Estimated
Tue 10:19:00 AM 57.3845 -37.1159 243° Southwest  Level Estimated
Tue 10:20:00 AM 57.3314 -37.3076 243° Southwest  Level Estimated
Tue 10:21:00 AM 57.2780 -37.4987 243° Southwest  Level Estimated
Tue 10:22:00 AM 57.2243 -37.6894 243° Southwest  Level Estimated
Tue 10:23:00 AM 57.1703 -37.8794 242° Southwest  Level Estimated
Tue 10:24:00 AM 57.1160 -38.0689 242° Southwest  Level Estimated
Tue 10:25:00 AM 57.0614 -38.2578 242° Southwest  Level Estimated
Tue 10:26:00 AM 57.0066 -38.4462 242° Southwest  Level Estimated
Tue 10:27:00 AM 56.9514 -38.6341 242° Southwest  Level Estimated
Tue 10:28:00 AM 56.8960 -38.8213 242° Southwest  Level Estimated
Tue 10:29:00 AM 56.8403 -39.0080 241° Southwest  Level Estimated
Tue 10:30:00 AM 56.7844 -39.1942 241° Southwest  Level Estimated
Tue 10:31:00 AM 56.7281 -39.3798 241° Southwest  Level Estimated
Tue 10:32:00 AM 56.6716 -39.5649 241° Southwest  Level Estimated
Tue 10:33:00 AM 56.6148 -39.7494 241° Southwest  Level Estimated
Tue 10:34:00 AM 56.5577 -39.9333 241° Southwest  Level Estimated
Tue 10:35:00 AM 56.5004 -40.1167 241° Southwest  Level Estimated
Tue 10:36:00 AM 56.4428 -40.2995 240° Southwest  Level Estimated
Tue 10:37:00 AM 56.3849 -40.4818 240° Southwest  Level Estimated
Tue 10:38:00 AM 56.3268 -40.6635 240° Southwest  Level Estimated
Tue 10:39:00 AM 56.2683 -40.8447 240° Southwest  Level Estimated
Tue 10:40:00 AM 56.2097 -41.0253 240° Southwest  Level Estimated
Tue 10:41:00 AM 56.1507 -41.2053 240° Southwest  Level Estimated
Tue 10:42:00 AM 56.0915 -41.3848 239° Southwest  Level Estimated
Tue 10:43:00 AM 56.0321 -41.5638 239° Southwest  Level Estimated
Tue 10:44:00 AM 55.9724 -41.7422 239° Southwest  Level Estimated
Tue 10:45:00 AM 55.9124 -41.9200 239° Southwest  Level Estimated
Tue 10:46:00 AM 55.8522 -42.0973 239° Southwest  Level Estimated
Tue 10:47:00 AM 55.7917 -42.2741 239° Southwest  Level Estimated
Tue 10:48:00 AM 55.7310 -42.4503 239° Southwest  Level Estimated
Tue 10:49:00 AM 55.6700 -42.6259 238° Southwest  Level Estimated
Tue 10:50:00 AM 55.6088 -42.8010 238° Southwest  Level Estimated
Tue 10:51:00 AM 55.5473 -42.9756 238° Southwest  Level Estimated
Tue 10:52:00 AM 55.4856 -43.1496 238° Southwest  Level Estimated
Tue 10:53:00 AM 55.4236 -43.3231 238° Southwest  Level Estimated
Tue 10:54:00 AM 55.3614 -43.4960 238° Southwest  Level Estimated
Tue 10:55:00 AM 55.2989 -43.6684 238° Southwest  Level Estimated
Tue 10:56:00 AM 55.2362 -43.8402 237° Southwest  Level Estimated
Tue 10:56:16 AM 63.1500 -54.9000 237° Southwest 280 322 36,000  Level Gander Center
Tue 10:57:00 AM 55.1733 -44.0115 237° Southwest  Level Estimated
Tue 10:57:16 AM 63.1167 -55.1667 255° West 410 472 36,000  Level Gander Center
Tue 10:58:00 AM 55.1101 -44.1822 237° Southwest  Level Estimated
Tue 10:58:16 AM 63.0333 -55.4000 232° Southwest 450 518 36,000  Level Gander Center
Tue 10:59:00 AM 55.0462 -44.3536 237° Southwest  Level Estimated
Tue 10:59:16 AM 63.0000 -55.6333 253° West 430 495 36,000  Level Gander Center
Tue 11:00:00 AM 54.9822 -44.5244 237° Southwest  Level Estimated
Tue 11:00:16 AM 62.9500 -55.8833 246° West 430 495 36,000  Level Gander Center
Tue 11:01:00 AM 54.9178 -44.6947 237° Southwest  Level Estimated
Tue 11:01:16 AM 62.9000 -56.1167 245° Southwest 440 506 36,000  Level Gander Center
Tue 11:02:16 AM 62.8333 -56.3833 241° Southwest 440 506 36,000  Level Gander Center
Tue 11:03:16 AM 62.8000 -56.6000 251° West 440 506 36,000  Level Gander Center
Tue 11:04:16 AM 62.7500 -56.8333 245° Southwest 440 506 36,000  Level Gander Center
Tue 11:05:16 AM 62.7000 -57.0833 247° West 440 506 36,000  Level Gander Center
Tue 11:06:04 AM 62.6500 -57.2167 231° Southwest 440 506 36,000  Level Montreal Center
Tue 11:07:04 AM 62.6000 -57.4500 245° Southwest 440 506 36,000  Level Montreal Center
Tue 11:08:04 AM 62.5500 -57.7000 247° West 440 506 36,000  Level Montreal Center
Tue 11:09:04 AM 62.5000 -57.9167 244° Southwest 440 506 36,000  Level Montreal Center
Tue 11:10:04 AM 62.4333 -58.1833 242° Southwest 440 506 36,000  Level Montreal Center
Tue 11:11:04 AM 62.3667 -58.4000 237° Southwest 450 518 36,000  Level Montreal Center
Tue 11:12:04 AM 62.3333 -58.6500 254° West 450 518 36,000  Level Montreal Center
Tue 11:13:04 AM 62.2833 -58.9000 247° West 450 518 36,000  Level Montreal Center
Tue 11:14:04 AM 62.2000 -59.1167 231° Southwest 450 518 36,000  Level Montreal Center
Tue 11:15:04 AM 62.1500 -59.3667 247° West 450 518 36,000  Level Montreal Center
Tue 11:16:04 AM 62.0833 -59.5833 237° Southwest 450 518 36,000  Level Montreal Center
Tue 11:17:04 AM 62.0333 -59.8333 247° West 450 518 36,000  Level Montreal Center
Tue 11:18:04 AM 61.9500 -60.0333 229° Southwest 440 506 36,000  Level Montreal Center
Tue 11:19:04 AM 61.9667 -59.9833 55° Northeast 370 426 36,000  Level Montreal Center
Tue 11:19:32 AM 61.8167 -60.2667 222° Southwest 300 345 36,000  Level Montreal Center
Tue 11:20:32 AM 61.7333 -60.4333 223° Southwest 430 495 36,000  Level Montreal Center
Tue 11:21:32 AM 61.6500 -60.5833 221° Southwest 430 495 36,000  Level Montreal Center
Tue 11:22:32 AM 61.5500 -60.7667 221° Southwest 430 495 36,000  Level Montreal Center
Tue 11:23:32 AM 61.4667 -60.9167 221° Southwest 430 495 36,000  Level Montreal Center
Tue 11:24:32 AM 61.3833 -61.1000 227° Southwest 440 506 36,000  Level Montreal Center
Tue 11:25:32 AM 61.2833 -61.2500 216° Southwest 430 495 36,000  Level Montreal Center
Tue 11:26:13 AM 61.2167 -61.4500 235° Southwest 450 518 36,000  Level Gander Center
Tue 11:27:13 AM 61.1333 -61.6333 227° Southwest 440 506 36,000  Level Gander Center
Tue 11:28:13 AM 61.0333 -61.7667 213° Southwest 430 495 36,000  Level Gander Center
Tue 11:29:13 AM 60.9500 -61.9333 224° Southwest 430 495 36,000  Level Gander Center
Tue 11:30:13 AM 60.8500 -62.0667 213° Southwest 440 506 36,000  Level Gander Center
Tue 11:31:13 AM 60.7667 -62.2333 224° Southwest 440 506 36,000  Level Gander Center
Tue 11:32:13 AM 60.6833 -62.4000 224° Southwest 430 495 36,000  Level Gander Center
Tue 11:33:13 AM 60.6000 -62.6000 230° Southwest 440 506 36,000  Level Gander Center
Tue 11:34:13 AM 60.5333 -62.8333 240° Southwest 450 518 36,000  Level Gander Center
Tue 11:35:13 AM 60.5000 -63.0667 254° West 450 518 36,000  Level Gander Center
Tue 11:36:13 AM 60.4500 -63.3000 247° West 450 518 36,000  Level Gander Center
Tue 11:37:13 AM 60.4167 -63.5333 254° West 450 518 36,000  Level Gander Center
Tue 11:38:13 AM 60.3667 -63.7667 247° West 450 518 36,000  Level Gander Center
Tue 11:39:13 AM 60.3167 -64.0000 247° West 450 518 36,000  Level Gander Center
Tue 11:40:13 AM 60.2833 -64.2667 256° West 450 518 36,000  Level Gander Center
Tue 11:41:13 AM 60.2333 -64.4667 243° Southwest 450 518 36,000  Level Gander Center
Tue 11:42:13 AM 60.1500 -64.6500 228° Southwest 440 506 36,000  Level Gander Center
Tue 11:43:13 AM 60.0500 -64.7833 214° Southwest 430 495 36,000  Level Gander Center
Tue 11:44:13 AM 59.9500 -64.9333 217° Southwest 440 506 36,000  Level Gander Center
Tue 11:45:13 AM 59.8667 -65.1000 225° Southwest 440 506 36,000  Level Gander Center
Tue 11:46:13 AM 59.7667 -65.2500 217° Southwest 440 506 36,000  Level Gander Center
Tue 11:47:13 AM 59.6667 -65.3667 211° Southwest 440 506 36,000  Level Gander Center
Tue 11:48:13 AM 59.5667 -65.5167 217° Southwest 440 506 36,000  Level Gander Center
Tue 11:49:13 AM 59.4833 -65.6833 225° Southwest 440 506 36,000  Level Gander Center
Tue 11:50:13 AM 59.3833 -65.8333 217° Southwest 440 506 36,000  Level Gander Center
Tue 11:51:13 AM 59.2833 -65.9833 217° Southwest 440 506 36,000  Level Gander Center
Tue 11:52:13 AM 59.1833 -66.1333 218° Southwest 440 506 36,000  Level Gander Center
Tue 11:53:13 AM 59.1000 -66.2500 216° Southwest 440 506 36,000  Level Gander Center
Tue 11:54:13 AM 58.9833 -66.4000 214° Southwest 430 495 36,000  Level Gander Center
Tue 11:55:13 AM 58.9000 -66.5333 220° Southwest 440 506 36,000  Level Gander Center
Tue 11:56:13 AM 58.8000 -66.6833 218° Southwest 430 495 36,000  Level Gander Center
Tue 11:57:13 AM 58.7000 -66.8000 211° Southwest 430 495 36,000  Level Gander Center
Tue 11:58:13 AM 58.6167 -66.9500 223° Southwest 430 495 36,000  Level Gander Center
Tue 11:59:13 AM 58.5167 -67.0833 215° Southwest 430 495 36,000  Level Gander Center
Tue 12:00:13 PM 58.4167 -67.2000 211° Southwest 430 495 36,000  Level Gander Center
Tue 12:01:13 PM 58.3167 -67.3500 218° Southwest 430 495 36,000  Level Gander Center
Tue 12:02:13 PM 58.2167 -67.4833 215° Southwest 430 495 36,000  Level Gander Center
Tue 12:03:13 PM 58.1333 -67.6333 224° Southwest 430 495 36,000  Level Gander Center
Tue 12:04:13 PM 58.0333 -67.7500 212° Southwest 430 495 36,000  Level Gander Center
Tue 12:05:13 PM 57.9333 -67.8833 215° Southwest 430 495 36,000  Level Gander Center
Tue 12:06:13 PM 57.8333 -68.0167 215° Southwest 430 495 36,000  Level Gander Center
Tue 12:07:13 PM 57.7500 -68.1333 217° Southwest 430 495 36,000  Level Gander Center
Tue 12:08:13 PM 57.6333 -68.2667 211° Southwest 430 495 36,000  Level Gander Center
Tue 12:09:13 PM 57.5500 -68.4000 221° Southwest 430 495 36,000  Level Gander Center
Tue 12:10:13 PM 57.4333 -68.5500 215° Southwest 430 495 36,000  Level Gander Center
Tue 12:11:13 PM 57.3500 -68.6833 221° Southwest 430 495 36,000  Level Gander Center
Tue 12:12:13 PM 57.2333 -68.7833 205° Southwest 430 495 36,000  Level Gander Center
Tue 12:13:13 PM 57.1500 -68.9167 221° Southwest 430 495 36,000  Level Gander Center
Tue 12:14:13 PM 57.0333 -69.0500 212° Southwest 440 506 36,000  Level Gander Center
Tue 12:15:13 PM 56.9500 -69.1833 221° Southwest 430 495 36,000  Level Gander Center
Tue 12:16:13 PM 56.8500 -69.2833 209° Southwest 430 495 36,000  Level Gander Center
Tue 12:17:13 PM 56.7500 -69.4167 216° Southwest 430 495 36,000  Level Gander Center
Tue 12:18:13 PM 56.6500 -69.5500 216° Southwest 430 495 36,000  Level Gander Center
Tue 12:19:13 PM 56.5500 -69.6500 209° Southwest 430 495 36,000  Level Gander Center
Tue 12:20:13 PM 56.4500 -69.7833 216° Southwest 430 495 36,000  Level Gander Center
Tue 12:21:13 PM 56.3500 -69.9167 216° Southwest 430 495 36,000  Level Gander Center
Tue 12:22:13 PM 56.2500 -70.0167 209° Southwest 430 495 36,000  Level Gander Center
Tue 12:23:13 PM 56.1667 -70.1500 222° Southwest 430 495 36,000  Level Gander Center
Tue 12:24:13 PM 56.0500 -70.2667 209° Southwest 430 495 36,000  Level Gander Center
Tue 12:25:13 PM 55.9667 -70.3667 214° Southwest 430 495 36,000  Level Gander Center
Tue 12:26:13 PM 55.8667 -70.5000 217° Southwest 430 495 36,000  Level Gander Center
Tue 12:27:13 PM 55.7500 -70.6167 209° Southwest 430 495 36,000  Level Gander Center
Tue 12:28:13 PM 55.6667 -70.7167 214° Southwest 430 495 36,000  Level Gander Center
Tue 12:29:13 PM 55.5500 -70.8333 210° Southwest 430 495 36,000  Level Gander Center
Tue 12:30:13 PM 55.4667 -70.9667 222° Southwest 430 495 36,000  Level Gander Center
Tue 12:31:13 PM 55.3500 -71.0833 210° Southwest 430 495 36,000  Level Gander Center
Tue 12:32:13 PM 55.2667 -71.1833 214° Southwest 430 495 36,000  Level Gander Center
Tue 12:33:13 PM 55.1500 -71.3000 210° Southwest 430 495 36,000  Level Gander Center
Tue 12:34:13 PM 55.0500 -71.4333 217° Southwest 430 495 36,000  Level Gander Center
Tue 12:35:13 PM 54.9667 -71.5167 210° Southwest 430 495 36,000  Level Gander Center
Tue 12:36:13 PM 54.8500 -71.6333 210° Southwest 430 495 36,000  Level Gander Center
Tue 12:37:13 PM 54.7667 -71.7333 215° Southwest 430 495 36,000  Level Gander Center
Tue 12:38:13 PM 54.6667 -71.8500 214° Southwest 430 495 36,000  Level Gander Center
Tue 12:39:13 PM 54.5500 -71.9667 210° Southwest 430 495 36,000  Level Gander Center
Tue 12:40:13 PM 54.4667 -72.0667 215° Southwest 430 495 36,000  Level Gander Center
Tue 12:41:13 PM 54.3667 -72.1833 214° Southwest 430 495 36,000  Level Gander Center
Tue 12:42:13 PM 54.2500 -72.3000 210° Southwest 430 495 36,000  Level Gander Center
Tue 12:43:13 PM 54.1667 -72.3833 210° Southwest 430 495 36,000  Level Gander Center
Tue 12:44:13 PM 54.0667 -72.5000 214° Southwest 420 483 36,000  Level Gander Center
Tue 12:45:13 PM 53.9500 -72.6167 210° Southwest 430 495 36,000  Level Gander Center
Tue 12:46:13 PM 53.8667 -72.7167 215° Southwest 420 483 36,000  Level Gander Center
Tue 12:47:13 PM 53.7500 -72.8167 207° Southwest 420 483 36,000  Level Gander Center
Tue 12:48:13 PM 53.6667 -72.9167 215° Southwest 420 483 36,000  Level Gander Center
Tue 12:49:13 PM 53.5667 -73.0333 215° Southwest 420 483 36,000  Level Gander Center
Tue 12:50:13 PM 53.4500 -73.1333 207° Southwest 420 483 36,000  Level Gander Center
Tue 12:51:13 PM 53.3667 -73.2333 216° Southwest 420 483 36,000  Level Gander Center
Tue 12:52:13 PM 53.2667 -73.3333 211° Southwest 430 495 36,000  Level Gander Center
Tue 12:53:13 PM 53.1500 -73.4167 203° Southwest 430 495 36,000  Level Gander Center
Tue 12:54:13 PM 53.0500 -73.5333 215° Southwest 430 495 36,000  Level Gander Center
Tue 12:55:13 PM 52.9667 -73.6500 220° Southwest 430 495 36,000  Level Gander Center
Tue 12:56:13 PM 52.8500 -73.7333 203° Southwest 430 495 36,000  Level Gander Center
Tue 12:57:13 PM 52.7500 -73.8333 211° Southwest 420 483 36,000  Level Gander Center
Tue 12:58:13 PM 52.6667 -73.9167 211° Southwest 430 495 36,000  Level Gander Center
Tue 12:59:13 PM 52.5500 -74.0333 211° Southwest 430 495 36,000  Level Gander Center
Tue 01:00:13 PM 52.4500 -74.1500 215° Southwest 430 495 36,000  Level Gander Center
Tue 01:01:13 PM 52.3333 -74.2500 208° Southwest 430 495 36,000  Level Gander Center
Tue 01:02:13 PM 52.2500 -74.3333 211° Southwest 430 495 36,000  Level Gander Center
Tue 01:03:13 PM 52.1333 -74.4333 208° Southwest 430 495 36,000  Level Gander Center
Tue 01:04:13 PM 52.0333 -74.5500 216° Southwest 420 483 36,000  Level Gander Center
Tue 01:05:13 PM 51.9500 -74.6167 206° Southwest 430 495 36,000  Level Gander Center
Tue 01:06:13 PM 51.8333 -74.7000 204° Southwest 430 495 36,000  Level Gander Center
Tue 01:07:13 PM 51.7333 -74.8167 216° Southwest 430 495 36,000  Level Gander Center
Tue 01:08:13 PM 51.6167 -74.8833 200° South 430 495 36,000  Level Gander Center
Tue 01:09:13 PM 51.5333 -74.9833 217° Southwest 430 495 36,000  Level Gander Center
Tue 01:10:32 PM 51.3833 -75.0667 199° South 420 483 36,000  Level Montreal Center
Tue 01:11:32 PM 51.2833 -75.1500 208° Southwest 420 483 36,000  Level Montreal Center
Tue 01:12:32 PM 51.1833 -75.2333 208° Southwest 420 483 36,000  Level Montreal Center
Tue 01:13:32 PM 51.0833 -75.3167 208° Southwest 420 483 36,000  Level Montreal Center
Tue 01:14:32 PM 50.9667 -75.4333 212° Southwest 420 483 36,000  Level Montreal Center
Tue 01:15:32 PM 50.8667 -75.5167 208° Southwest 420 483 36,000  Level Montreal Center
Tue 01:16:32 PM 50.7667 -75.6167 212° Southwest 420 483 36,000  Level Montreal Center
Tue 01:17:32 PM 50.6667 -75.7000 208° Southwest 420 483 36,000  Level Montreal Center
Tue 01:18:32 PM 50.5500 -75.7833 204° Southwest 420 483 36,000  Level Montreal Center
Tue 01:19:32 PM 50.4500 -75.8667 208° Southwest 420 483 36,000  Level Montreal Center
Tue 01:20:32 PM 50.3500 -75.9667 213° Southwest 420 483 36,000  Level Montreal Center
Tue 01:21:32 PM 50.2500 -76.0500 208° Southwest 420 483 36,000  Level Montreal Center
Tue 01:22:32 PM 50.1333 -76.1167 200° South 430 495 36,000  Level Montreal Center
Tue 01:23:32 PM 50.0333 -76.2333 217° Southwest 420 483 36,000  Level Montreal Center
Tue 01:24:32 PM 49.9167 -76.3000 200° South 420 483 36,000  Level Montreal Center
Tue 01:25:32 PM 49.8167 -76.3833 208° Southwest 420 483 36,000  Level Montreal Center
Tue 01:26:32 PM 49.7167 -76.4667 208° Southwest 420 483 36,000  Level Montreal Center
Tue 01:27:32 PM 49.6000 -76.5667 209° Southwest 420 483 36,000  Level Montreal Center
Tue 01:28:32 PM 49.5000 -76.6333 203° Southwest 430 495 36,000  Level Montreal Center
Tue 01:29:32 PM 49.3833 -76.7167 205° Southwest 430 495 36,000  Level Montreal Center
Tue 01:30:32 PM 49.3000 -76.8167 218° Southwest 410 472 36,000  Level Montreal Center
Tue 01:31:32 PM 49.1833 -76.9000 205° Southwest 430 495 36,000  Level Montreal Center
Tue 01:32:32 PM 49.0833 -76.9667 204° Southwest 420 483 36,000  Level Montreal Center
Tue 01:33:32 PM 48.9833 -77.0500 209° Southwest 420 483 36,000  Level Montreal Center
Tue 01:34:32 PM 48.8833 -77.1500 213° Southwest 420 483 36,000  Level Montreal Center
Tue 01:35:32 PM 48.7667 -77.2167 201° Southwest 420 483 36,000  Level Montreal Center
Tue 01:36:32 PM 48.6500 -77.2833 201° Southwest 420 483 36,000  Level Montreal Center
Tue 01:37:32 PM 48.5500 -77.3833 214° Southwest 420 483 36,000  Level Montreal Center
Tue 01:38:32 PM 48.4500 -77.4667 209° Southwest 420 483 36,000  Level Montreal Center
Tue 01:39:32 PM 48.3500 -77.5333 204° Southwest 420 483 36,000  Level Montreal Center
Tue 01:40:32 PM 48.2333 -77.6333 210° Southwest 420 483 36,000  Level Montreal Center
Tue 01:41:32 PM 48.1333 -77.7000 204° Southwest 430 495 36,000  Level Montreal Center
Tue 01:42:32 PM 48.0333 -77.7833 209° Southwest 430 495 36,000  Level Montreal Center
Tue 01:43:32 PM 47.9333 -77.8667 209° Southwest 430 495 36,000  Level Montreal Center
Tue 01:44:32 PM 47.8000 -77.9500 203° Southwest 430 495 36,000  Level Montreal Center
Tue 01:45:32 PM 47.7000 -78.0167 204° Southwest 430 495 36,000  Level Montreal Center
Tue 01:46:32 PM 47.6000 -78.1167 214° Southwest 430 495 36,000  Level Montreal Center
Tue 01:47:32 PM 47.4833 -78.1833 201° Southwest 430 495 36,000  Level Montreal Center
Tue 01:48:32 PM 47.3833 -78.2500 204° Southwest 430 495 36,000  Level Montreal Center
Tue 01:49:32 PM 47.2833 -78.3500 214° Southwest 430 495 36,000  Level Montreal Center
Tue 01:50:32 PM 47.1833 -78.4167 204° Southwest 420 483 36,000  Level Montreal Center
Tue 01:51:32 PM 47.0667 -78.4833 201° Southwest 420 483 36,000  Level Montreal Center
Tue 01:52:32 PM 46.9500 -78.5667 206° Southwest 420 483 36,000  Level Montreal Center
Tue 01:53:32 PM 46.8500 -78.6500 210° Southwest 420 483 36,000  Level Montreal Center
Tue 01:54:04 PM 46.8000 -78.6500 180° South 430 495 36,000  Level Toronto Center
Tue 01:55:04 PM 46.7000 -78.7333 210° Southwest 430 495 36,000  Level Toronto Center
Tue 01:56:04 PM 46.5833 -78.8000 201° Southwest 420 483 36,000  Level Toronto Center
Tue 01:57:04 PM 46.4833 -78.8833 210° Southwest 420 483 36,000  Level Toronto Center
Tue 01:58:04 PM 46.3833 -78.9500 205° Southwest 430 495 36,000  Level Toronto Center
Tue 01:59:04 PM 46.2667 -79.0333 206° Southwest 430 495 36,000  Level Toronto Center
Tue 02:00:04 PM 46.1667 -79.1000 205° Southwest 420 483 36,000  Level Toronto Center
Tue 02:01:04 PM 46.0500 -79.1833 206° Southwest 430 495 36,000  Level Toronto Center
Tue 02:06:30 PM 45.4722 -79.5899 206° Southwest 421 484 36,000  Level FlightAware ADS-B (CYKF)
Tue 02:08:21 PM 45.4132 -79.6296 205° Southwest 418 481 36,000  Level FlightAware ADS-B (CYKF)
Tue 02:09:21 PM 45.1739 -79.7890 205° Southwest 421 484 36,000  Level FlightAware ADS-B (CYKF)
Tue 02:10:44 PM 45.0380 -79.8789 205° Southwest 424 488 36,000  Level FlightAware ADS-B (CYKF)
Tue 02:11:23 PM 44.9592 -79.9306 205° Southwest 420 483 36,000  Level FlightAware ADS-B (CYKF)
Tue 02:11:59 PM 44.8954 -79.9725 205° Southwest 422 486 36,000  Level FlightAware ADS-B (CYKF)
Tue 02:12:40 PM 44.8233 -80.0197 205° Southwest 421 484 36,000  Level FlightAware ADS-B (CYKF)
Tue 02:13:25 PM 44.7443 -80.0713 205° Southwest 421 484 36,000  Level FlightAware ADS-B (CYKF)
Tue 02:14:04 PM 44.6764 -80.1155 205° Southwest 422 486 36,000  Level FlightAware ADS-B (CYKF)
Tue 02:14:45 PM 44.6028 -80.1633 205° Southwest 422 486 36,000  Level FlightAware ADS-B (CYKF)
Tue 02:15:23 PM 44.5344 -80.2076 205° Southwest 424 488 36,000  Level FlightAware ADS-B (CYKF)
Tue 02:16:05 PM 44.4600 -80.2558 205° Southwest 428 493 36,000  Level FlightAware ADS-B (CYKF)
Tue 02:16:45 PM 44.4111 -80.2873 205° Southwest 432 497 36,000  Level FlightAware ADS-B (CYKF)
Tue 02:17:24 PM 44.3205 -80.3453 205° Southwest 431 496 36,000  Level FlightAware ADS-B (CYKF)
Tue 02:18:05 PM 44.2582 -80.3851 205° Southwest 422 486 36,000  Level FlightAware ADS-B (CYKF)
Tue 02:18:42 PM 44.1809 -80.4346 205° Southwest 420 483 36,000  Level FlightAware ADS-B (CYKF)
Tue 02:19:24 PM 44.1482 -80.4555 205° Southwest 417 480 36,000  Level FlightAware ADS-B (CYKF)
Tue 02:20:03 PM 44.0403 -80.5242 205° Southwest 416 479 36,000  Level FlightAware ADS-B (CYKF)
Tue 02:20:42 PM 43.9715 -80.5677 204° Southwest 414 476 36,000  Level FlightAware ADS-B (CYKF)
Tue 02:21:22 PM 43.8985 -80.6140 205° Southwest 412 474 36,000  Level FlightAware ADS-B (CYKF)
Tue 02:22:01 PM 43.8445 -80.6480 204° Southwest 409 471 36,000  Level FlightAware ADS-B (CYKF)
Tue 02:22:32 PM 43.7855 -80.6854 205° Southwest 410 472 36,000  Level FlightAware ADS-B
Tue 02:23:04 PM 43.7233 -80.7245 204° Southwest 411 473 36,000  Level FlightAware ADS-B (CYKF)
Tue 02:23:43 PM 43.6704 -80.7574 204° Southwest 412 474 36,000  Level FlightAware ADS-B (CYKF)
Tue 02:24:24 PM 43.5847 -80.8111 204° Southwest 411 473 36,000  Level FlightAware ADS-B (CYKF)
Tue 02:25:04 PM 43.5155 -80.8541 204° Southwest 409 471 36,000  Level FlightAware ADS-B (CYKF)
Tue 02:25:45 PM 43.4459 -80.8975 204° Southwest 408 470 36,000  Level FlightAware ADS-B (CYKF)
Tue 02:26:25 PM 43.3771 -80.9401 204° Southwest 406 467 36,000  Level FlightAware ADS-B (CYKF)
Tue 02:27:03 PM 43.3148 -80.9784 204° Southwest 407 468 36,000  Level FlightAware ADS-B (CYKF)
Tue 02:27:43 PM 43.2436 -81.0225 204° Southwest 407 468 36,000  Level FlightAware ADS-B (CYKF)
Tue 02:28:23 PM 43.1771 -81.0636 204° Southwest 409 471 36,000  Level FlightAware ADS-B (CYKF)
Tue 02:29:05 PM 43.1063 -81.1071 204° Southwest 411 473 36,000  Level FlightAware ADS-B (CYKF)
Tue 02:29:44 PM 43.0339 -81.1514 204° Southwest 410 472 36,000  Level FlightAware ADS-B (CYKF)
Tue 02:30:23 PM 42.9677 -81.1922 204° Southwest 405 466 36,000  Level FlightAware ADS-B (CYKF)
Tue 02:31:03 PM 42.8989 -81.2350 205° Southwest 400 460 36,000  Level FlightAware ADS-B (CYKF)
Tue 02:31:44 PM 42.8307 -81.2772 204° Southwest 397 457 36,000  Level FlightAware ADS-B (CYKF)
Tue 02:32:17 PM 42.7899 -81.3021 204° Southwest 399 459 36,000  Level FlightAware ADS-B (CYKF)
Tue 02:33:04 PM 42.6971 -81.3591 204° Southwest 399 459 36,000  Level FlightAware ADS-B (CYKF)
Tue 02:33:43 PM 42.6314 -81.3993 204° Southwest 399 459 36,000  Level FlightAware ADS-B (CYKF)
Tue 02:34:24 PM 42.5617 -81.4420 204° Southwest 401 461 36,000  Level FlightAware ADS-B (CYKF)
Tue 02:35:04 PM 42.4945 -81.4830 204° Southwest 403 464 36,000  Level FlightAware ADS-B (CYKF)
Tue 02:35:44 PM 42.4399 -81.5163 204° Southwest 406 467 36,000  Level FlightAware ADS-B (CYKF)
Tue 02:37:01 PM 42.2940 -81.6046 204° Southwest 404 465 36,000  Level FlightAware ADS-B (CYKF)
Tue 02:37:33 PM 42.2396 -81.6375 204° Southwest 402 463 36,000  Level FlightAware ADS-B (CYKF)
Tue 02:38:23 PM 42.1567 -81.6873 204° Southwest 398 458 36,000  Level FlightAware ADS-B (CYKF)
Tue 02:39:24 PM 42.1141 -81.7130 204° Southwest 393 452 36,000  Level FlightAware ADS-B (CYKF)
Tue 02:40:45 PM 41.9275 -81.8256 204° Southwest 396 456 36,000  Level Cleveland Center
Tue 02:41:47 PM 41.8258 -81.8844 203° Southwest 397 457 36,000  Level Cleveland Center
Tue 02:42:48 PM 41.7239 -81.9467 204° Southwest 400 460 36,000  Level Cleveland Center
Tue 02:43:50 PM 41.6217 -82.0061 203° Southwest 400 460 36,000  Level Cleveland Center
Tue 02:44:51 PM 41.5203 -82.0664 204° Southwest 398 458 36,000  Level Cleveland Center
Tue 02:45:53 PM 41.4017 -82.1356 204° Southwest 399 459 36,000  Level Cleveland Center
Tue 02:46:54 PM 41.2950 -82.1831 199° South 407 468 36,000  Level Cleveland Center
Tue 02:47:56 PM 41.1847 -82.2244 196° South 410 472 36,000  Level Cleveland Center
Tue 02:48:58 PM 41.0739 -82.2625 195° South 408 470 36,000  Level Cleveland Center
Tue 02:49:59 PM 40.9633 -82.3019 195° South 410 472 36,000  Level Cleveland Center
Tue 02:51:01 PM 40.8547 -82.3408 195° South 404 465 36,000  Level Cleveland Center
Tue 02:56:50 PM 40.1987 -82.5720 195° South 408 470 36,000  Level FlightAware ADS-B
Tue 02:57:31 PM 40.1203 -82.5894 190° South 426 490 36,000  Level FlightAware ADS-B
Tue 02:58:11 PM 40.0412 -82.5950 183° South 429 494 36,000  Level FlightAware ADS-B
Tue 02:58:51 PM 39.9630 -82.6010 183° South 427 491 36,000  Level FlightAware ADS-B
Tue 02:59:31 PM 39.8852 -82.6064 183° South 427 491 36,000  Level FlightAware ADS-B
Tue 03:00:01 PM 39.8249 -82.6106 183° South 429 494 36,000  Level FlightAware ADS-B
Tue 03:00:34 PM 39.7589 -82.6150 183° South 429 494 36,000  Level FlightAware ADS-B
Tue 03:02:55 PM 39.4837 -82.6334 183° South 432 497 36,000  Level FlightAware ADS-B
Tue 03:03:56 PM 39.3563 -82.6419 183° South 432 497 36,000  Level FlightAware ADS-B
Tue 03:05:36 PM 39.1569 -82.6553 183° South 433 498 36,000  Level FlightAware ADS-B
Tue 03:07:15 PM 38.9622 -82.6681 183° South 425 489 36,000  Level FlightAware ADS-B
Tue 03:07:55 PM 38.8983 -82.6711 183° South 424 488 36,000  Level Indianapolis Center
Tue 03:08:56 PM 38.7822 -82.6789 183° South 419 482 36,000  Level Indianapolis Center
Tue 03:09:58 PM 38.6658 -82.6878 183° South 419 482 36,000  Level Indianapolis Center
Tue 03:11:00 PM 38.5406 -82.6939 182° South 415 478 36,000  Level Indianapolis Center
Tue 03:12:02 PM 38.4258 -82.7014 183° South 411 473 36,000  Level Indianapolis Center
Tue 03:13:03 PM 38.3136 -82.7100 183° South 405 466 36,000  Level Indianapolis Center
Tue 03:14:05 PM 38.2006 -82.7167 183° South 404 465 36,000  Level Indianapolis Center
Tue 03:15:06 PM 38.0714 -82.7269 184° South 398 458 36,000  Level Indianapolis Center
Tue 03:16:08 PM 37.9583 -82.7344 183° South 403 464 36,000  Level Indianapolis Center
Tue 03:17:10 PM 37.8436 -82.7408 183° South 410 472 36,000  Level Indianapolis Center
Tue 03:18:12 PM 37.7308 -82.7519 184° South 406 467 36,000  Level Indianapolis Center
Tue 03:19:13 PM 37.6278 -82.7850 194° South 387 445 36,000  Level Indianapolis Center
Tue 03:20:15 PM 37.5372 -82.8444 208° Southwest 366 421 36,000  Level Indianapolis Center
Tue 03:21:17 PM 37.4308 -82.9156 208° Southwest 369 425 36,000  Level Indianapolis Center
Tue 03:22:19 PM 37.3397 -82.9742 207° Southwest 369 425 36,000  Level Indianapolis Center
Tue 03:23:20 PM 37.2500 -83.0333 208° Southwest 365 420 36,000  Level Indianapolis Center
Tue 03:24:22 PM 37.1614 -83.0914 208° Southwest 363 418 36,000  Level Indianapolis Center
Tue 03:25:24 PM 37.0731 -83.1494 208° Southwest 362 417 36,000  Level Indianapolis Center
Tue 03:26:25 PM 36.9711 -83.2147 207° Southwest 356 410 36,000  Level Indianapolis Center
Tue 03:27:27 PM 36.8858 -83.2703 208° Southwest 349 402 36,000  Level Indianapolis Center
Tue 03:28:29 PM 36.8003 -83.3242 207° Southwest 345 397 36,000  Level Indianapolis Center
Tue 03:29:30 PM 36.7139 -83.3792 207° Southwest 348 400 36,000  Level Indianapolis Center
Tue 03:30:32 PM 36.6281 -83.4350 208° Southwest 348 400 36,000  Level Indianapolis Center
Tue 03:31:34 PM 36.5439 -83.4889 207° Southwest 343 395 36,000  Level Indianapolis Center
Tue 03:32:35 PM 36.4578 -83.5447 208° Southwest 342 394 36,000  Level Indianapolis Center
Tue 03:33:37 PM 36.3728 -83.5994 207° Southwest 343 395 36,000  Level Indianapolis Center
Tue 03:34:38 PM 36.2708 -83.6625 207° Southwest 342 394 36,000  Level Indianapolis Center
Tue 03:35:40 PM 36.1856 -83.7175 208° Southwest 343 395 36,000  Level Indianapolis Center
Tue 03:36:42 PM 36.1011 -83.7708 207° Southwest 340 391 36,000  Level Indianapolis Center
Tue 03:37:27 PM 36.0331 -83.8153 208° Southwest 342 394 36,000  Level Atlanta Center
Tue 03:38:27 PM 35.9539 -83.8642 207° Southwest 342 394 36,000  Level Atlanta Center
Tue 03:39:27 PM 35.8622 -83.9031 199° South 347 399 36,000  Level Atlanta Center
Tue 03:40:27 PM 35.7619 -83.9286 192° South 353 406 36,000  Level Atlanta Center
Tue 03:41:27 PM 35.6764 -83.9519 192° South 358 412 36,000  Level Atlanta Center
Tue 03:42:27 PM 35.5764 -83.9750 191° South 358 412 36,000  Level Atlanta Center
Tue 03:43:27 PM 35.4764 -84.0006 192° South 358 412 36,000  Level Atlanta Center
Tue 03:44:27 PM 35.3783 -84.0261 192° South 358 412 36,000  Level Atlanta Center
Tue 03:45:27 PM 35.2781 -84.0489 191° South 363 418 36,000  Level Atlanta Center
Tue 03:46:27 PM 35.1778 -84.0719 191° South 368 423 36,000  Level Atlanta Center
Tue 03:47:27 PM 35.0756 -84.0972 191° South 373 429 36,000  Level Atlanta Center
Tue 03:48:27 PM 34.9733 -84.1200 190° South 373 429 36,000  Level Atlanta Center
Tue 03:49:27 PM 34.8733 -84.1450 192° South 373 429 36,000  Level Atlanta Center
Tue 03:50:27 PM 34.7689 -84.1703 191° South 373 429 36,000  Level Atlanta Center
Tue 03:51:27 PM 34.6686 -84.1953 192° South 373 429 36,000  Level Atlanta Center
Tue 03:52:27 PM 34.5558 -84.2178 189° South 373 429 36,000  Level Atlanta Center
Tue 03:53:27 PM 34.4536 -84.2428 191° South 373 429 36,000 150 Level Atlanta Center
Tue 03:54:27 PM 34.3492 -84.2653 190° South 373 429 36,300 500 Climbing Atlanta Center
Tue 03:55:27 PM 34.2447 -84.2900 191° South 373 429 37,000 350 Climbing Atlanta Center
Tue 03:56:27 PM 34.1403 -84.3150 191° South 373 429 37,000  Level Atlanta Center
Tue 03:57:27 PM 34.0297 -84.3447 193° South 394 453 37,000  Level Atlanta Center
Tue 03:58:27 PM 33.9294 -84.3667 190° South 388 447 37,000  Level Atlanta Center
Tue 03:59:27 PM 33.8208 -84.3939 192° South 393 452 37,000  Level Atlanta Center
Tue 04:00:27 PM 33.7164 -84.4183 191° South 393 452 37,000  Level Atlanta Center
Tue 04:01:27 PM 33.6142 -84.4378 189° South 393 452 37,000  Level Atlanta Center
Tue 04:02:27 PM 33.4972 -84.4350 179° South 407 468 37,000  Level Atlanta Center
Tue 04:03:27 PM 33.3825 -84.4369 181° South 407 468 37,000  Level Atlanta Center
Tue 04:04:27 PM 33.2697 -84.4314 178° South 402 463 37,000  Level Atlanta Center
Tue 04:05:27 PM 33.1528 -84.4308 180° South 409 471 37,000  Level Atlanta Center
Tue 04:06:27 PM 33.0422 -84.4278 179° South 409 471 37,000  Level Atlanta Center
Tue 04:07:27 PM 32.9253 -84.4225 178° South 414 476 37,000  Level Atlanta Center
Tue 04:08:27 PM 32.8083 -84.4269 182° South 421 484 37,000  Level Atlanta Center
Tue 04:09:27 PM 32.7103 -84.4189 176° South 416 479 37,000  Level Atlanta Center
Tue 04:10:27 PM 32.5933 -84.4186 180° South 416 479 37,000  Level Atlanta Center
Tue 04:11:27 PM 32.4786 -84.4156 179° South 421 484 37,000  Level Atlanta Center
Tue 04:13:07 PM 32.2828 -84.4086 178° South 422 486 37,000  Level Jacksonville Center
Tue 04:14:07 PM 32.1639 -84.4067 179° South 421 484 37,000  Level Jacksonville Center
Tue 04:15:07 PM 32.0469 -84.4047 179° South 421 484 37,000  Level Jacksonville Center
Tue 04:16:07 PM 31.9278 -84.4028 179° South 421 484 37,000  Level Jacksonville Center
Tue 04:21:18 PM 31.3009 -84.3885 179° South 424 488 37,000  Level FlightAware ADS-B (KONZ)
Tue 04:22:12 PM 31.1958 -84.3864 179° South 424 488 37,000  Level FlightAware ADS-B (KONZ)
Tue 04:22:51 PM 31.1170 -84.3849 179° South 424 488 37,000  Level FlightAware ADS-B (KONZ)
Tue 04:23:29 PM 31.0492 -84.3835 179° South 424 488 37,000  Level FlightAware ADS-B (KONZ)
Tue 04:24:14 PM 30.9594 -84.3818 179° South 422 486 37,000  Level FlightAware ADS-B (KONZ)
Tue 04:24:54 PM 30.8820 -84.3803 179° South 422 486 37,000  Level FlightAware ADS-B (KONZ)
Tue 04:25:33 PM 30.8140 -84.3790 179° South 423 487 37,000  Level FlightAware ADS-B (KONZ)
Tue 04:26:13 PM 30.7223 -84.3773 179° South 425 489 37,000  Level FlightAware ADS-B (KONZ)
Tue 04:26:52 PM 30.6433 -84.3705 176° South 439 505 37,000  Level FlightAware ADS-B (KONZ)
Tue 04:27:23 PM 30.5789 -84.3563 169° South 451 519 37,000  Level FlightAware ADS-B
Tue 04:28:14 PM 30.4870 -84.3218 162° South 468 539 37,000  Level FlightAware ADS-B (KONZ)
Tue 04:28:53 PM 30.4162 -84.2820 154° Southeast 486 559 37,000  Level FlightAware ADS-B (KONZ)
Tue 04:29:42 PM 30.3030 -84.2078 150° Southeast 484 557 37,000  Level FlightAware ADS-B
Tue 04:30:14 PM 30.2486 -84.1723 151° Southeast 483 556 37,000  Level FlightAware ADS-B
Tue 04:31:02 PM 30.1658 -84.1183 151° Southeast 481 554 37,000  Level FlightAware ADS-B
Tue 04:31:36 PM 30.0818 -84.0636 151° Southeast 480 552 37,000  Level FlightAware ADS-B
Tue 04:32:10 PM 30.0282 -84.0288 151° Southeast 479 551 37,000  Level FlightAware ADS-B (KONZ)
Tue 04:33:12 PM 29.9603 -83.9847 151° Southeast 479 551 37,000  Level FlightAware ADS-B (KONZ)
Tue 04:34:20 PM 29.9923 -84.0055 331° Northwest 478 550 37,000  Level FlightAware ADS-B
Tue 04:35:07 PM 29.6850 -83.8081 331° Northwest 477 549 37,000  Level Jacksonville Center
Tue 04:36:07 PM 29.5686 -83.7331 151° Southeast 477 549 37,000  Level Jacksonville Center
Tue 04:37:07 PM 29.4519 -83.6631 152° Southeast 477 549 37,000  Level Jacksonville Center
Tue 04:38:07 PM 29.3397 -83.5881 150° Southeast 477 549 37,000  Level Jacksonville Center
Tue 04:44:16 PM 28.6360 -83.1389 150° Southeast 463 533 37,000  Level FlightAware ADS-B
Tue 04:47:28 PM 28.2769 -82.9139 151° Southeast 466 536 37,000  Level FlightAware ADS-B
Tue 04:48:16 PM 28.1852 -82.8567 151° Southeast 465 535 37,000  Level FlightAware ADS-B
Tue 04:49:08 PM 28.0878 -82.7961 151° Southeast 465 535 37,000  Level FlightAware ADS-B
Tue 04:50:03 PM 27.9840 -82.7315 151° Southeast 462 532 37,000  Level FlightAware ADS-B
Tue 04:50:35 PM 27.9340 -82.7070 157° South 447 514 37,000  Level FlightAware ADS-B
Tue 04:51:26 PM 27.8184 -82.6973 176° South 435 501 37,000  Level FlightAware ADS-B
Tue 04:52:16 PM 27.7191 -82.6924 177° South 435 501 37,000  Level FlightAware ADS-B
Tue 04:52:48 PM 27.6606 -82.6914 177° South 430 495 37,000  Level Miami Center
Tue 04:58:19 PM 26.9838 -82.6577 177° South 438 504 37,000  Level FlightAware ADS-B
Tue 05:02:16 PM 26.5036 -82.6350 178° South 441 507 37,000  Level FlightAware ADS-B
Tue 05:02:57 PM 26.4207 -82.6311 178° South 441 507 37,000  Level FlightAware ADS-B
Tue 05:03:37 PM 26.3360 -82.6271 178° South 440 506 37,000  Level FlightAware ADS-B
Tue 05:04:17 PM 26.2542 -82.6233 178° South 440 506 37,000  Level FlightAware ADS-B
Tue 05:08:38 PM 25.7188 -82.5981 178° South 442 509 37,000  Level FlightAware ADS-B
Tue 05:09:19 PM 25.6615 -82.5954 178° South 441 507 37,000  Level FlightAware ADS-B
Tue 05:09:59 PM 25.5517 -82.5902 178° South 440 506 37,000  Level FlightAware ADS-B
Tue 05:10:48 PM 25.4733 -82.5886 178° South 439 505 37,000 -220 Level Miami Center
Tue 05:11:48 PM 25.3483 -82.5828 178° South 439 505 36,600 -650 Descending Miami Center
Tue 05:12:48 PM 25.2275 -82.5772 178° South 439 505 35,700 -1,000 Descending Miami Center
Tue 05:13:48 PM 25.0983 -82.5711 178° South 449 517 34,600 -1,150 Descending Miami Center
Tue 05:14:48 PM 24.9753 -82.5675 178° South 449 517 33,400 -1,250 Descending Miami Center
Tue 05:15:48 PM 24.8525 -82.5619 178° South 449 517 32,100 -1,350 Descending Miami Center
Tue 05:16:48 PM 24.7314 -82.5564 178° South 443 510 30,700 -1,400 Descending Miami Center
Tue 05:17:48 PM 24.6128 -82.5486 177° South 438 504 29,300 -1,400 Descending Miami Center
Tue 05:18:48 PM 24.5022 -82.5458 179° South 420 483 27,900 -1,400 Descending Miami Center
Tue 05:19:48 PM 24.3897 -82.5383 177° South 410 472 26,500 -1,400 Descending Miami Center
Tue 05:20:48 PM 24.2814 -82.5333 178° South 399 459 25,100 -1,400 Descending Miami Center
Tue 05:21:48 PM 24.1708 -82.5308 179° South 399 459 23,700 -1,300 Descending Miami Center
Tue 05:22:48 PM 24.0647 -82.5258 178° South 394 453 22,500 -1,100 Descending Miami Center
Tue 05:23:48 PM 23.9583 -82.5233 179° South 387 445 21,500 -1,500 Descending Miami Center
Tue 05:24:48 PM 23.8597 -82.5347 186° South 375 432 19,500 -2,000 Descending Miami Center
Tue 05:26:00 PM 23.7269 -82.4794 175° South  Level FlightAware Approximate
Tue 05:33:00 PM 22.9891 -82.4091 180° South  Level Estimated
Tue 05:34:00 PM 22.9891 -82.4091 180° South  Level Estimated
Tue 05:35:00 PM 22.9891 -82.4091 180° South  Level Estimated
Tue 05:36:00 PM 22.9891 -82.4091 180° South  Level Estimated
Tue 05:37:00 PM 22.9891 -82.4091 180° South  Level Estimated
Tue 05:38:00 PM 22.9891 -82.4091 180° South  Level Estimated
Tue 05:39:00 PM 22.9891 -82.4091 180° South  Level Estimated
Tue 05:40:00 PM 22.9891 -82.4091 180° South  Level Estimated
Tue 05:41:00 PM 22.9891 -82.4091 180° South  Level Estimated
Tue 05:42:00 PM 22.9891 -82.4091 180° South  Level Estimated
Tue 05:43:00 PM 22.9891 -82.4091 180° South  Level Estimated
Tue 05:44:00 PM 22.9891 -82.4091 180° South  Level Estimated
Tue 05:45:00 PM 22.9891 -82.4091 180° South  Level Estimated
Tue 05:46:00 PM 22.9891 -82.4091 180° South  Level Estimated
Tue 05:47:00 PM 22.9891 -82.4091 180° South  Level Estimated
Tue 05:48:00 PM 22.9891 -82.4091 180° South  Level Estimated
Tue 05:49:00 PM 22.9891 -82.4091 180° South  Level Estimated
Tue 05:50:00 PM 22.9891 -82.4091 180° South  Level Estimated
Tue 05:51:00 PM 22.9891 -82.4091 180° South  Level Estimated
Tue 05:52:00 PM 22.9891 -82.4091 180° South  Level Estimated
Tue 05:53:00 PM 22.9891 -82.4091 180° South  Level Estimated
Tue 05:54:00 PM 22.9891 -82.4091 180° South  Level Estimated

Login

Don't have an account? Register now (free) for customized features, flight alerts, and more!